Time;durP1;ratioP1;P1;durP2;ratioP2;P2;SDS_P1;SDS_P2;PMS_P1;PMS_P2;Temp;Humidity;BMP_temperature;BMP_pressure;BME280_temperature;BME280_humidity;BME280_pressure;Samples;Min_cycle;Max_cycle;Signal;HPM_P1;HPM_P2
2021/09/14 00:00:10;;;;;;;6.20;5.47;;;;;;;14.82;81.85;96800.73;1687787;84;21000;-82
2021/09/14 00:02:39;;;;;;;6.87;5.72;;;;;;;14.84;81.66;96798.22;1686529;84;21059;-82
2021/09/14 00:05:05;;;;;;;5.45;4.75;;;;;;;14.84;81.69;96794.30;1686073;84;21063;-82
2021/09/14 00:07:31;;;;;;;6.75;4.80;;;;;;;14.87;81.64;96800.94;1704002;83;21018;-82
2021/09/14 00:09:57;;;;;;;6.67;5.00;;;;;;;14.87;81.53;96791.28;1708667;83;21101;-82
2021/09/14 00:12:22;;;;;;;6.35;5.70;;;;;;;14.89;81.62;96793.69;1708409;83;21088;-82
2021/09/14 00:14:49;;;;;;;6.10;5.42;;;;;;;14.91;81.70;96792.48;1695618;83;21392;-82
2021/09/14 00:17:15;;;;;;;8.83;5.60;;;;;;;14.90;81.48;96785.64;1695340;83;21079;-82
2021/09/14 00:19:41;;;;;;;8.00;6.08;;;;;;;14.89;81.61;96784.03;1680615;84;21034;-82
2021/09/14 00:22:06;;;;;;;6.90;5.03;;;;;;;14.87;81.55;96788.66;1679821;84;21539;-82
2021/09/14 00:24:32;;;;;;;5.85;5.00;;;;;;;14.87;81.54;96783.94;1667849;84;21119;-82
2021/09/14 00:26:58;;;;;;;6.47;4.75;;;;;;;14.84;81.61;96779.91;1700771;83;21450;-82
2021/09/14 00:29:24;;;;;;;8.45;5.97;;;;;;;14.83;81.57;96781.42;1674540;84;21382;-82
2021/09/14 00:31:49;;;;;;;7.62;5.47;;;;;;;14.81;81.61;96784.23;1649219;85;21071;-82
2021/09/14 00:34:15;;;;;;;9.58;5.95;;;;;;;14.77;81.84;96785.61;1699807;84;21041;-82
2021/09/14 00:36:41;;;;;;;7.15;5.85;;;;;;;14.70;81.91;96782.19;1675951;84;21434;-82
2021/09/14 00:39:06;;;;;;;8.08;5.20;;;;;;;14.63;81.92;96788.69;1673696;85;21114;-82
2021/09/14 00:41:33;;;;;;;5.72;5.22;;;;;;;14.60;82.05;96782.55;1699923;84;21045;-82
2021/09/14 00:44:00;;;;;;;5.42;4.83;;;;;;;14.58;82.04;96782.45;1692965;84;21442;-82
2021/09/14 00:46:27;;;;;;;6.17;5.05;;;;;;;14.56;82.01;96786.57;1689504;84;21016;-82
2021/09/14 00:48:52;;;;;;;8.43;5.22;;;;;;;14.53;82.08;96788.27;1676036;84;21414;-82
2021/09/14 00:51:18;;;;;;;6.72;6.03;;;;;;;14.52;82.19;96784.05;1683311;84;21012;-82
2021/09/14 00:53:47;;;;;;;7.00;6.25;;;;;;;14.49;82.17;96777.11;1674087;84;21014;-82
2021/09/14 00:56:11;;;;;;;6.67;6.08;;;;;;;14.48;82.44;96774.16;1693178;84;21019;-82
2021/09/14 00:58:37;;;;;;;6.80;6.10;;;;;;;14.45;82.45;96775.86;1678955;84;21082;-82
2021/09/14 01:01:03;;;;;;;8.78;6.17;;;;;;;14.40;82.61;96766.77;1687456;84;21020;-82
2021/09/14 01:03:29;;;;;;;5.78;5.17;;;;;;;14.37;82.51;96769.78;1671565;84;21141;-82
2021/09/14 01:05:56;;;;;;;8.15;5.78;;;;;;;14.34;82.46;96759.73;1668060;84;21126;-82
2021/09/14 01:08:21;;;;;;;7.55;5.17;;;;;;;14.34;82.55;96766.27;1694811;84;21066;-82
2021/09/14 01:10:48;;;;;;;7.35;5.22;;;;;;;14.34;82.69;96757.61;1697793;84;21122;-82
2021/09/14 01:13:14;;;;;;;7.65;5.65;;;;;;;14.38;82.74;96753.59;1707607;84;21076;-82
2021/09/14 01:15:39;;;;;;;7.58;6.15;;;;;;;14.40;82.79;96756.31;1688176;84;21132;-82
2021/09/14 01:18:05;;;;;;;7.95;6.55;;;;;;;14.43;82.89;96759.03;1683379;84;21056;-82
2021/09/14 01:20:31;;;;;;;8.45;6.50;;;;;;;14.45;82.93;96758.87;1679002;84;21091;-82
2021/09/14 01:22:57;;;;;;;6.50;5.90;;;;;;;14.44;82.97;96759.38;1674686;84;21461;-83
2021/09/14 01:25:23;;;;;;;7.12;5.45;;;;;;;14.45;82.84;96757.56;1691186;84;21197;-83
2021/09/14 01:27:50;;;;;;;6.87;5.60;;;;;;;14.48;82.92;96763.70;1690086;84;21124;-83
2021/09/14 01:30:19;;;;;;;6.08;5.42;;;;;;;14.51;82.75;96763.33;1702137;84;21447;-83
2021/09/14 01:32:47;;;;;;;7.25;5.70;;;;;;;14.55;82.83;96760.62;1657656;84;21398;-83
2021/09/14 01:35:19;;;;;;;8.53;6.12;;;;;;;14.55;82.79;96756.70;1688459;84;21039;-83
2021/09/14 01:37:45;;;;;;;6.20;5.40;;;;;;;14.53;82.56;96758.70;1677154;84;21031;-83
2021/09/14 01:40:11;;;;;;;6.10;5.35;;;;;;;14.50;82.56;96756.48;1676518;84;21069;-83
2021/09/14 01:42:37;;;;;;;5.65;5.15;;;;;;;14.51;82.63;96762.02;1674369;84;21441;-84
2021/09/14 01:45:04;;;;;;;6.50;5.05;;;;;;;14.52;82.72;96763.13;1691746;84;20996;-83
2021/09/14 01:47:30;;;;;;;6.22;5.30;;;;;;;14.49;82.58;96765.34;1687020;84;21105;-83
2021/09/14 01:49:56;;;;;;;5.62;4.90;;;;;;;14.47;82.71;96766.81;1680086;84;21031;-83
2021/09/14 01:52:22;;;;;;;6.22;4.72;;;;;;;14.44;82.71;96761.17;1677076;85;21022;-84
2021/09/14 01:54:49;;;;;;;5.95;5.22;;;;;;;14.40;82.87;96764.66;1679891;84;21551;-84
2021/09/14 01:57:19;;;;;;;7.42;5.12;;;;;;;14.37;83.16;96768.48;1679396;84;21002;-83
2021/09/14 01:59:43;;;;;;;8.08;5.25;;;;;;;14.35;83.09;96770.48;1692740;83;20992;-83
2021/09/14 02:02:22;;;;;;;7.25;5.75;;;;;;;14.34;83.09;96771.48;1707716;83;21008;-83
2021/09/14 02:04:59;;;;;;;8.40;6.20;;;;;;;14.34;83.07;96770.69;1695551;83;21027;-83
2021/09/14 02:56:11;;;;;;;6.75;5.78;;;;;;;14.10;83.97;96775.39;1678419;84;21350;-83
2021/09/14 02:58:39;;;;;;;9.10;5.92;;;;;;;13.91;84.12;96773.99;1687051;84;21027;-83
2021/09/14 03:01:09;;;;;;;8.73;6.15;;;;;;;13.90;84.29;96774.99;1699976;84;21528;-83
2021/09/14 03:03:36;;;;;;;8.28;5.35;;;;;;;13.87;84.37;96771.47;1671572;84;21035;-83
2021/09/14 03:06:02;;;;;;;8.00;5.67;;;;;;;13.87;84.53;96776.69;1680770;85;21047;-83
2021/09/14 03:08:29;;;;;;;7.62;5.95;;;;;;;13.87;84.55;96778.00;1688120;84;21054;-83
2021/09/14 03:10:54;;;;;;;8.05;5.75;;;;;;;13.88;84.67;96773.08;1680776;84;21483;-83
2021/09/14 03:13:20;;;;;;;7.83;6.25;;;;;;;13.87;84.58;96777.50;1693324;84;21083;-83
2021/09/14 03:15:46;;;;;;;7.30;6.17;;;;;;;13.86;84.66;96772.47;1694081;84;21445;-83
2021/09/14 03:18:12;;;;;;;8.38;6.50;;;;;;;13.86;84.69;96769.85;1681640;84;20989;-83
2021/09/14 03:20:37;;;;;;;6.28;5.47;;;;;;;13.84;84.64;96767.44;1689546;84;21023;-83
2021/09/14 03:23:03;;;;;;;9.85;7.00;;;;;;;13.86;84.77;96762.02;1658771;85;21124;-83
2021/09/14 03:25:30;;;;;;;8.20;7.40;;;;;;;13.84;84.78;96757.48;1680733;84;21473;-83
2021/09/14 03:27:55;;;;;;;9.40;6.65;;;;;;;13.81;84.83;96758.16;1686270;84;21020;-83
2021/09/14 03:30:21;;;;;;;8.13;6.62;;;;;;;13.81;84.97;96759.46;1697201;84;20975;-83
2021/09/14 03:32:47;;;;;;;8.43;6.65;;;;;;;13.79;85.04;96752.32;1692932;84;21059;-83
2021/09/14 03:35:13;;;;;;;7.95;7.12;;;;;;;13.77;85.14;96751.71;1672995;84;21021;-83
2021/09/14 03:37:39;;;;;;;10.23;6.78;;;;;;;13.77;85.19;96754.33;1680148;84;21466;-83
2021/09/14 03:40:06;;;;;;;10.10;6.58;;;;;;;13.79;85.23;96749.71;1692752;83;21099;-83
2021/09/14 03:42:31;;;;;;;7.47;6.60;;;;;;;13.81;85.28;96751.63;1707667;83;21507;-83
2021/09/14 03:44:57;;;;;;;7.67;6.85;;;;;;;13.84;85.18;96752.27;1721243;83;20987;-83
2021/09/14 03:47:23;;;;;;;7.67;6.87;;;;;;;13.82;85.16;96748.02;1725620;83;20973;-83
2021/09/14 03:49:49;;;;;;;7.67;6.28;;;;;;;13.84;85.04;96753.58;1723548;83;21063;-83
2021/09/14 03:52:15;;;;;;;7.95;7.15;;;;;;;13.85;85.27;96760.41;1716977;83;21119;-83
2021/09/14 03:54:40;;;;;;;8.50;7.70;;;;;;;13.86;85.32;96762.02;1716122;83;21105;-83
2021/09/14 03:57:06;;;;;;;10.93;7.55;;;;;;;13.82;85.24;96761.08;1716295;83;21086;-83
2021/09/14 03:59:35;;;;;;;8.60;7.08;;;;;;;13.78;85.22;96758.55;1695406;83;20995;-83
2021/09/14 04:02:00;;;;;;;8.60;6.47;;;;;;;13.75;85.20;96761.55;1671447;85;21112;-83
2021/09/14 04:04:47;;;;;;;7.15;6.40;;;;;;;13.71;85.30;96764.24;1668798;84;21155;-83
2021/09/14 04:09:34;;;;;;;8.75;6.50;;;;;;;13.66;85.42;96767.10;1673094;84;21171;-83
2021/09/14 04:12:00;;;;;;;10.00;6.28;;;;;;;13.65;85.38;96763.69;1659187;84;21012;-83
2021/09/14 04:14:28;;;;;;;7.17;5.67;;;;;;;13.66;85.16;96765.30;1696520;84;20999;-83
2021/09/14 04:16:53;;;;;;;7.75;6.70;;;;;;;13.66;85.08;96766.60;1715814;83;21046;-83
2021/09/14 04:19:19;;;;;;;6.85;5.65;;;;;;;13.67;85.08;96768.24;1667231;84;21031;-83
2021/09/14 04:21:47;;;;;;;7.12;5.92;;;;;;;13.67;84.87;96770.85;1660538;84;21573;-83
2021/09/14 04:24:13;;;;;;;8.28;6.75;;;;;;;13.68;84.95;96770.35;1671512;85;21081;-83
2021/09/14 04:26:39;;;;;;;8.53;6.90;;;;;;;13.67;85.01;96769.55;1671028;84;21097;-83
2021/09/14 04:29:04;;;;;;;8.90;6.62;;;;;;;13.67;84.96;96774.77;1663164;85;21036;-83
2021/09/14 04:31:30;;;;;;;6.75;6.05;;;;;;;13.64;85.00;96777.73;1664683;85;21078;-83
2021/09/14 04:33:56;;;;;;;10.25;6.37;;;;;;;13.63;85.10;96776.13;1688267;84;21114;-83
2021/09/14 04:36:22;;;;;;;7.30;6.05;;;;;;;13.66;85.05;96782.27;1670601;84;21077;-83
2021/09/14 04:38:47;;;;;;;7.12;5.67;;;;;;;13.68;84.87;96773.77;1658557;85;21130;-83
2021/09/14 04:41:13;;;;;;;8.68;5.40;;;;;;;13.68;84.77;96780.80;1672966;84;21154;-83
2021/09/14 04:43:39;;;;;;;7.72;6.40;;;;;;;13.68;84.70;96785.52;1693035;84;21038;-83
2021/09/14 04:46:04;;;;;;;7.47;5.87;;;;;;;13.71;84.76;96781.72;1699947;84;21557;-83
2021/09/14 04:48:31;;;;;;;7.15;6.30;;;;;;;13.74;84.89;96789.97;1703472;84;21050;-83
2021/09/14 04:50:57;;;;;;;7.83;6.60;;;;;;;13.76;84.78;96787.97;1692163;84;21083;-83
2021/09/14 04:53:22;;;;;;;7.80;7.00;;;;;;;13.74;84.80;96793.89;1687638;84;21088;-83
2021/09/14 04:55:48;;;;;;;7.58;5.62;;;;;;;13.72;84.80;96795.08;1675285;84;21528;-83
2021/09/14 04:58:14;;;;;;;6.42;5.65;;;;;;;13.68;84.93;96797.27;1690245;84;21138;-83
2021/09/14 05:00:39;;;;;;;6.97;6.17;;;;;;;13.65;85.00;96801.55;1688285;84;21085;-83
2021/09/14 05:03:05;;;;;;;6.03;4.95;;;;;;;13.66;85.07;96806.27;1682609;84;21134;-83
2021/09/14 05:05:31;;;;;;;6.70;5.55;;;;;;;13.67;85.14;96807.91;1693204;84;21094;-83
2021/09/14 05:07:58;;;;;;;7.25;6.12;;;;;;;13.68;85.12;96803.80;1693248;84;21038;-83
2021/09/14 05:10:26;;;;;;;7.92;6.50;;;;;;;13.69;85.16;96805.41;1689835;84;21417;-83
2021/09/14 05:12:51;;;;;;;8.30;6.90;;;;;;;13.72;85.24;96809.45;1681453;84;21043;-83
2021/09/14 05:15:17;;;;;;;6.70;6.00;;;;;;;13.75;85.28;96803.83;1679774;85;21364;-83
2021/09/14 05:17:43;;;;;;;7.45;5.67;;;;;;;13.78;85.31;96806.06;1668409;84;21035;-83
2021/09/14 05:20:11;;;;;;;7.10;5.70;;;;;;;13.82;85.24;96805.47;1699059;83;21041;-83
2021/09/14 05:22:37;;;;;;;7.47;4.85;;;;;;;13.87;85.24;96807.53;1705621;83;21044;-83
2021/09/14 05:25:05;;;;;;;7.10;6.15;;;;;;;13.90;85.22;96807.14;1695714;84;21065;-83
2021/09/14 05:27:31;;;;;;;7.33;6.58;;;;;;;13.92;85.21;96803.84;1680116;84;21011;-83
2021/09/14 05:29:56;;;;;;;8.15;6.10;;;;;;;13.94;85.47;96804.95;1688190;84;20991;-83
2021/09/14 05:32:22;;;;;;;7.97;7.17;;;;;;;13.94;85.72;96808.37;1687336;83;21110;-83
2021/09/14 05:34:48;;;;;;;6.67;5.42;;;;;;;13.93;85.74;96810.67;1707282;83;20961;-83
2021/09/14 05:37:14;;;;;;;6.62;5.92;;;;;;;13.92;85.79;96805.14;1676292;84;20998;-83
2021/09/14 05:39:40;;;;;;;7.15;6.00;;;;;;;13.93;85.85;96809.87;1696237;84;21067;-83
2021/09/14 05:42:09;;;;;;;8.10;6.00;;;;;;;13.94;85.93;96809.67;1672539;84;21041;-83
2021/09/14 05:44:35;;;;;;;7.30;5.53;;;;;;;13.97;85.99;96810.59;1671778;84;21029;-83
2021/09/14 05:47:04;;;;;;;8.00;6.35;;;;;;;14.01;86.01;96811.03;1678939;84;21055;-83
2021/09/14 05:49:30;;;;;;;8.45;6.85;;;;;;;14.04;86.07;96808.03;1670428;84;21026;-83
2021/09/14 05:51:58;;;;;;;7.83;6.35;;;;;;;14.07;86.17;96806.34;1681926;84;21054;-83
2021/09/14 05:54:24;;;;;;;7.10;5.58;;;;;;;14.12;86.32;96810.47;1662201;84;21569;-83
2021/09/14 05:56:49;;;;;;;6.80;5.33;;;;;;;14.18;86.27;96807.61;1674133;84;21202;-83
2021/09/14 05:59:15;;;;;;;7.83;5.47;;;;;;;14.22;86.33;96810.94;1671864;84;21138;-83
2021/09/14 06:01:41;;;;;;;6.97;5.83;;;;;;;14.31;86.43;96807.14;1676711;84;21151;-83
2021/09/14 06:04:06;;;;;;;6.05;5.45;;;;;;;14.42;86.12;96811.02;1651137;85;21056;-83
2021/09/14 06:06:32;;;;;;;6.95;5.83;;;;;;;14.49;85.96;96812.41;1675353;84;21102;-83
2021/09/14 06:08:58;;;;;;;7.28;6.20;;;;;;;14.53;86.00;96810.50;1665430;84;21119;-83
2021/09/14 06:11:24;;;;;;;8.40;6.37;;;;;;;14.56;86.12;96806.69;1707126;84;21423;-83
2021/09/14 06:13:50;;;;;;;8.03;5.85;;;;;;;14.59;86.17;96806.28;1683218;84;21033;-83
2021/09/14 06:16:16;;;;;;;6.53;5.78;;;;;;;14.63;85.98;96809.61;1682458;84;21063;-83
2021/09/14 06:18:42;;;;;;;5.55;5.05;;;;;;;14.67;86.11;96813.97;1699002;84;21489;-84
2021/09/14 06:21:07;;;;;;;8.23;4.95;;;;;;;14.71;86.20;96808.14;1685386;84;21028;-83
2021/09/14 06:23:33;;;;;;;5.72;5.20;;;;;;;14.81;86.32;96816.13;1684106;84;21035;-83
2021/09/14 06:26:00;;;;;;;5.42;4.87;;;;;;;14.87;86.13;96811.41;1686733;83;21048;-83
2021/09/14 06:28:26;;;;;;;9.30;6.55;;;;;;;14.91;86.09;96810.00;1691444;84;21081;-84
2021/09/14 06:30:51;;;;;;;7.83;6.30;;;;;;;14.98;86.15;96815.56;1677016;83;20976;-83
2021/09/14 06:33:17;;;;;;;8.80;7.15;;;;;;;15.02;86.14;96814.66;1726467;83;21011;-83
2021/09/14 06:35:43;;;;;;;6.60;6.00;;;;;;;15.05;86.24;96823.41;1720969;83;21441;-83
2021/09/14 06:38:09;;;;;;;6.90;6.17;;;;;;;15.09;86.14;96815.97;1694518;83;20967;-83
2021/09/14 06:40:35;;;;;;;8.70;7.33;;;;;;;15.11;85.97;96817.38;1699452;83;21429;-83
2021/09/14 06:43:00;;;;;;;9.40;6.65;;;;;;;15.13;85.99;96818.48;1678070;83;21009;-83
2021/09/14 06:45:26;;;;;;;9.78;6.35;;;;;;;15.18;86.10;96820.82;1672326;84;21109;-83
2021/09/14 06:47:52;;;;;;;8.05;6.10;;;;;;;15.21;85.90;96825.66;1663707;84;22572;-84
2021/09/14 06:50:22;;;;;;;7.83;6.15;;;;;;;15.26;85.77;96824.54;1660144;85;21399;-82
2021/09/14 06:52:48;;;;;;;7.25;6.55;;;;;;;15.33;85.65;96821.14;1671481;84;21438;-83
2021/09/14 06:55:14;;;;;;;7.53;6.53;;;;;;;15.38;85.62;96821.33;1669814;84;21118;-83
2021/09/14 06:57:39;;;;;;;9.33;7.30;;;;;;;15.42;85.55;96821.23;1682549;84;21470;-83
2021/09/14 07:00:06;;;;;;;8.73;7.28;;;;;;;15.47;85.44;96816.22;1674419;84;21015;-83
2021/09/14 07:02:33;;;;;;;9.08;6.40;;;;;;;15.52;85.57;96808.55;1660606;85;21011;-83
2021/09/14 07:04:59;;;;;;;7.75;6.95;;;;;;;15.62;85.52;96816.84;1670302;85;21048;-83
2021/09/14 07:07:24;;;;;;;7.87;6.67;;;;;;;15.68;85.20;96816.53;1659365;84;21032;-83
2021/09/14 07:09:50;;;;;;;7.00;6.30;;;;;;;15.73;85.13;96814.09;1677752;84;21458;-83
2021/09/14 07:12:16;;;;;;;8.45;6.50;;;;;;;15.77;85.12;96812.67;1675938;85;21517;-83
2021/09/14 07:14:42;;;;;;;8.13;7.30;;;;;;;15.80;84.98;96818.84;1663221;84;21088;-84
2021/09/14 07:17:09;;;;;;;9.23;7.90;;;;;;;15.85;84.93;96810.66;1659382;85;21031;-83
2021/09/14 07:19:35;;;;;;;8.18;7.35;;;;;;;15.90;85.32;96810.84;1690118;84;21019;-83
2021/09/14 07:22:01;;;;;;;7.70;6.87;;;;;;;15.96;85.28;96814.48;1685335;84;21025;-83
2021/09/14 07:24:27;;;;;;;7.58;6.60;;;;;;;15.96;85.14;96813.17;1671377;85;21076;-83
2021/09/14 07:26:53;;;;;;;7.90;6.83;;;;;;;15.98;85.11;96814.27;1682141;84;21549;-83
2021/09/14 07:29:19;;;;;;;8.53;6.72;;;;;;;16.02;85.06;96820.20;1684101;84;21099;-83
2021/09/14 07:31:45;;;;;;;9.48;7.70;;;;;;;16.04;85.18;96820.80;1685007;84;21387;-83
2021/09/14 07:34:11;;;;;;;7.78;6.97;;;;;;;16.07;85.19;96823.01;1670667;84;21024;-83
2021/09/14 07:36:37;;;;;;;8.00;6.97;;;;;;;16.13;85.44;96815.66;1672649;84;21059;-83
2021/09/14 07:39:04;;;;;;;10.90;8.55;;;;;;;16.17;85.46;96814.73;1690997;84;21016;-83
2021/09/14 07:41:30;;;;;;;7.90;6.80;;;;;;;16.25;84.87;96814.99;1682331;84;21039;-84
2021/09/14 07:43:56;;;;;;;7.55;6.53;;;;;;;16.31;85.31;96819.43;1698227;84;20976;-83
2021/09/14 07:46:21;;;;;;;10.30;9.25;;;;;;;16.39;85.09;96818.68;1669996;84;21421;-83
2021/09/14 07:48:47;;;;;;;9.88;8.50;;;;;;;16.47;84.69;96823.70;1683510;84;20982;-84
2021/09/14 07:51:13;;;;;;;10.32;8.23;;;;;;;16.57;84.51;96824.56;1696570;83;20968;-83
2021/09/14 07:53:38;;;;;;;8.13;7.17;;;;;;;16.67;84.46;96828.90;1673533;84;21024;-83
2021/09/14 07:56:05;;;;;;;6.83;6.10;;;;;;;16.70;84.81;96821.11;1694795;84;21063;-83
2021/09/14 07:58:31;;;;;;;8.13;6.47;;;;;;;16.68;84.80;96823.95;1688619;84;21099;-83
2021/09/14 08:00:56;;;;;;;10.18;7.87;;;;;;;16.67;84.71;96826.27;1680568;84;21166;-83
2021/09/14 08:03:22;;;;;;;8.35;7.55;;;;;;;16.70;84.26;96821.11;1689221;83;21051;-83
2021/09/14 08:05:48;;;;;;;8.88;7.85;;;;;;;16.75;84.46;96829.15;1698048;84;21019;-83
2021/09/14 08:08:14;;;;;;;8.63;7.25;;;;;;;16.77;84.89;96824.02;1711382;83;20984;-83
2021/09/14 08:10:40;;;;;;;8.20;7.30;;;;;;;16.83;84.80;96822.87;1721965;82;21330;-84
2021/09/14 08:13:06;;;;;;;9.15;8.25;;;;;;;16.86;84.68;96821.94;1709420;83;21092;-83
2021/09/14 08:15:32;;;;;;;8.58;7.78;;;;;;;16.90;84.80;96827.05;1694623;84;21410;-83
2021/09/14 08:17:59;;;;;;;10.55;9.45;;;;;;;16.88;84.86;96833.02;1665405;84;20949;-83
2021/09/14 08:20:25;;;;;;;8.85;7.92;;;;;;;16.87;85.04;96825.36;1704241;83;21019;-83
2021/09/14 08:22:51;;;;;;;11.80;10.13;;;;;;;16.99;85.29;96829.73;1715763;83;21041;-83
2021/09/14 08:25:17;;;;;;;9.85;7.83;;;;;;;17.05;84.14;96831.51;1716874;83;21006;-83
2021/09/14 08:27:43;;;;;;;9.00;8.10;;;;;;;17.15;84.71;96826.31;1700704;83;21055;-83
2021/09/14 08:30:10;;;;;;;8.43;7.50;;;;;;;17.20;84.09;96826.48;1693966;83;21438;-84
2021/09/14 08:32:36;;;;;;;9.00;8.08;;;;;;;17.18;84.37;96835.08;1713030;82;21133;-83
2021/09/14 08:35:02;;;;;;;10.00;7.47;;;;;;;17.17;84.51;96836.90;1700216;83;21040;-84
2021/09/14 08:37:28;;;;;;;9.48;7.70;;;;;;;17.18;84.80;96837.20;1690306;84;21488;-84
2021/09/14 08:39:54;;;;;;;9.48;8.50;;;;;;;17.19;84.97;96839.31;1680875;84;21066;-83
2021/09/14 08:42:20;;;;;;;9.63;8.33;;;;;;;17.17;85.09;96834.27;1694144;84;21070;-83
2021/09/14 08:44:46;;;;;;;8.78;7.75;;;;;;;17.14;84.99;96837.84;1724142;83;21074;-83
2021/09/14 08:47:12;;;;;;;9.23;8.23;;;;;;;17.09;85.10;96832.72;1726053;82;21462;-83
2021/09/14 08:49:38;;;;;;;8.68;7.80;;;;;;;17.05;85.11;96832.83;1718180;83;21484;-84
2021/09/14 08:52:06;;;;;;;11.18;7.40;;;;;;;17.02;85.07;96836.38;1696222;83;20971;-83
2021/09/14 08:54:31;;;;;;;8.63;7.67;;;;;;;16.99;85.10;96836.30;1694382;84;21012;-83
2021/09/14 08:56:57;;;;;;;9.50;8.48;;;;;;;16.96;85.33;96831.98;1697250;83;21520;-83
2021/09/14 08:59:29;;;;;;;10.18;8.88;;;;;;;16.96;85.66;96838.55;1714179;83;21105;-83
2021/09/14 09:02:00;;;;;;;10.25;9.20;;;;;;;16.94;85.66;96842.70;1699408;83;21406;-83
2021/09/14 09:04:25;;;;;;;9.30;8.33;;;;;;;16.98;85.77;96840.45;1675546;84;21121;-83
2021/09/14 09:06:51;;;;;;;11.08;8.43;;;;;;;17.00;85.90;96838.42;1692345;84;21166;-84
2021/09/14 09:09:19;;;;;;;11.38;8.95;;;;;;;17.06;85.92;96837.06;1673046;84;21032;-83
2021/09/14 09:11:57;;;;;;;10.32;8.80;;;;;;;17.15;85.96;96840.25;1689657;84;21157;-83
2021/09/14 09:14:42;;;;;;;9.20;8.15;;;;;;;17.16;85.58;96843.17;1682276;84;21071;-83
2021/09/14 09:17:16;;;;;;;9.80;8.90;;;;;;;17.15;85.66;96841.56;1699740;84;21438;-83
2021/09/14 09:19:45;;;;;;;9.85;8.85;;;;;;;17.21;85.87;96838.59;1687072;84;21025;-83
2021/09/14 09:22:12;;;;;;;10.58;9.48;;;;;;;17.24;85.97;96841.59;1675585;85;21044;-83
2021/09/14 09:24:46;;;;;;;10.30;8.55;;;;;;;17.24;85.80;96838.16;1692511;84;21381;-84
2021/09/14 09:27:13;;;;;;;11.93;8.85;;;;;;;17.23;85.79;96839.98;1690371;84;21167;-83
2021/09/14 09:29:39;;;;;;;9.93;8.05;;;;;;;17.25;86.01;96837.17;1696110;84;21067;-83
2021/09/14 09:32:05;;;;;;;10.08;8.83;;;;;;;17.29;86.04;96842.28;1679973;84;21058;-83
2021/09/14 09:34:32;;;;;;;10.38;9.38;;;;;;;17.34;85.88;96841.12;1696760;84;21007;-84
2021/09/14 09:37:05;;;;;;;11.15;10.00;;;;;;;17.39;85.87;96843.41;1677766;84;21059;-84
2021/09/14 09:39:47;;;;;;;11.40;9.90;;;;;;;17.55;85.85;96837.33;1693002;84;21462;-84
2021/09/14 09:42:14;;;;;;;10.45;9.45;;;;;;;17.57;85.66;96834.81;1674103;84;21028;-84
2021/09/14 09:44:40;;;;;;;11.88;9.13;;;;;;;17.56;85.37;96844.19;1677396;84;21485;-83
2021/09/14 09:47:06;;;;;;;10.05;9.05;;;;;;;17.54;85.50;96840.98;1678739;84;21132;-84
2021/09/14 09:49:33;;;;;;;9.55;8.38;;;;;;;17.56;85.57;96841.05;1698086;84;21014;-83
2021/09/14 09:51:59;;;;;;;9.75;8.75;;;;;;;17.57;85.53;96838.75;1684424;84;21062;-84
2021/09/14 09:54:25;;;;;;;10.28;8.98;;;;;;;17.60;85.32;96840.14;1678300;84;21110;-84
2021/09/14 09:56:51;;;;;;;9.98;8.68;;;;;;;17.62;85.41;96840.73;1678599;84;21174;-83
2021/09/14 09:59:18;;;;;;;10.40;9.00;;;;;;;17.67;85.50;96840.88;1715894;83;21020;-83
2021/09/14 10:02:09;;;;;;;11.53;10.10;;;;;;;17.72;85.30;96838.43;1660974;84;21433;-83
2021/09/14 10:04:52;;;;;;;10.55;9.20;;;;;;;17.73;85.06;96836.09;1670439;84;21508;-83
2021/09/14 10:07:18;;;;;;;9.58;8.65;;;;;;;17.73;85.27;96833.98;1653936;84;21043;-84
2021/09/14 10:09:54;;;;;;;10.03;8.63;;;;;;;17.76;85.42;96835.69;1706168;83;21041;-83
2021/09/14 10:12:24;;;;;;;9.63;8.60;;;;;;;17.89;85.48;96831.60;1708040;83;21038;-83
2021/09/14 10:14:58;;;;;;;8.90;8.00;;;;;;;17.98;85.10;96827.69;1694910;84;21038;-84
2021/09/14 10:17:25;;;;;;;8.90;8.00;;;;;;;18.04;84.62;96835.72;1690088;84;20978;-83
2021/09/14 10:19:51;;;;;;;9.18;8.28;;;;;;;18.04;84.45;96828.63;1709221;83;21153;-83
2021/09/14 10:22:24;;;;;;;8.90;8.05;;;;;;;18.15;84.90;96826.60;1669995;85;21463;-84
2021/09/14 10:24:56;;;;;;;10.15;9.05;;;;;;;18.22;84.54;96829.16;1671691;84;21063;-83
2021/09/14 10:27:21;;;;;;;10.15;8.85;;;;;;;18.25;84.12;96828.23;1705715;84;21075;-84
2021/09/14 10:29:56;;;;;;;9.90;8.90;;;;;;;18.29;84.28;96828.59;1705713;84;21032;-84
2021/09/14 10:32:21;;;;;;;10.18;8.68;;;;;;;18.32;84.40;96831.28;1692743;84;21085;-84
2021/09/14 10:34:54;;;;;;;10.40;8.83;;;;;;;18.34;84.60;96832.67;1667670;85;20996;-83
2021/09/14 10:37:20;;;;;;;9.45;8.50;;;;;;;18.40;84.26;96829.18;1681742;84;21385;-84
2021/09/14 10:39:46;;;;;;;8.98;8.08;;;;;;;18.45;83.88;96828.52;1662425;85;21043;-84
2021/09/14 10:42:20;;;;;;;8.98;8.08;;;;;;;18.49;84.12;96823.89;1679602;85;21103;-83
2021/09/14 10:44:51;;;;;;;9.43;8.45;;;;;;;18.63;83.93;96824.58;1691370;84;21113;-84
2021/09/14 10:47:22;;;;;;;10.48;9.38;;;;;;;18.83;83.10;96834.33;1696241;83;20996;-83
2021/09/14 10:49:58;;;;;;;10.68;9.58;;;;;;;19.03;82.78;96828.80;1680294;84;21026;-84
2021/09/14 10:52:44;;;;;;;10.43;9.33;;;;;;;19.19;81.56;96830.79;1688069;84;20992;-84
2021/09/14 10:55:17;;;;;;;10.65;9.55;;;;;;;19.18;81.65;96837.09;1668393;84;21013;-84
2021/09/14 10:57:51;;;;;;;10.15;9.08;;;;;;;19.10;80.10;96830.84;1671201;84;21047;-83
2021/09/14 11:00:19;;;;;;;9.15;7.75;;;;;;;19.04;80.59;96831.74;1677861;84;22532;-84
2021/09/14 11:02:56;;;;;;;9.60;8.60;;;;;;;19.02;81.13;96831.66;1678321;84;21020;-84
2021/09/14 11:05:29;;;;;;;9.65;8.75;;;;;;;19.03;80.87;96835.38;1700288;84;21035;-83
2021/09/14 11:08:08;;;;;;;10.00;9.03;;;;;;;19.02;80.76;96831.66;1686998;84;21394;-83
2021/09/14 11:10:36;;;;;;;10.08;8.55;;;;;;;18.98;80.66;96830.50;1677051;84;21184;-84
2021/09/14 11:13:03;;;;;;;10.05;8.40;;;;;;;18.96;80.86;96828.09;1660546;85;21581;-84
2021/09/14 11:15:29;;;;;;;9.48;8.08;;;;;;;18.98;81.01;96826.55;1675241;84;21023;-84
2021/09/14 11:17:55;;;;;;;8.90;8.10;;;;;;;19.06;81.27;96825.73;1680135;84;21032;-84
2021/09/14 11:20:21;;;;;;;10.63;8.95;;;;;;;19.30;80.63;96829.73;1685053;84;21054;-84
2021/09/14 11:22:49;;;;;;;9.43;8.45;;;;;;;19.49;79.82;96824.67;1694506;83;21041;-84
2021/09/14 11:25:21;;;;;;;9.95;8.98;;;;;;;19.67;78.37;96825.92;1697741;83;21015;-84
2021/09/14 11:28:02;;;;;;;10.58;9.13;;;;;;;19.84;78.80;96819.45;1690268;84;21449;-84
2021/09/14 11:30:30;;;;;;;9.95;8.95;;;;;;;20.02;77.25;96819.88;1666276;84;21012;-84
2021/09/14 11:32:56;;;;;;;10.98;9.15;;;;;;;20.15;77.13;96821.45;1665353;84;21024;-84
2021/09/14 11:35:22;;;;;;;9.70;8.70;;;;;;;20.23;75.08;96817.95;1677866;84;21014;-83
2021/09/14 11:38:01;;;;;;;11.57;9.60;;;;;;;20.31;75.81;96820.22;1680135;84;20975;-84
2021/09/14 11:40:27;;;;;;;10.15;9.03;;;;;;;20.39;75.00;96818.55;1669595;85;21075;-84
2021/09/14 11:43:02;;;;;;;9.60;8.70;;;;;;;20.46;74.45;96810.52;1678920;84;21126;-84
2021/09/14 11:45:31;;;;;;;11.08;9.83;;;;;;;20.36;74.06;96815.06;1685723;84;20992;-84
2021/09/14 11:47:57;;;;;;;10.70;9.60;;;;;;;20.34;74.12;96817.66;1671376;84;21485;-84
2021/09/14 11:50:31;;;;;;;10.98;9.75;;;;;;;20.44;70.39;96810.48;1708202;83;21011;-84
2021/09/14 11:53:18;;;;;;;9.18;8.38;;;;;;;20.48;70.28;96819.53;1664464;84;21386;-84
2021/09/14 11:55:49;;;;;;;9.43;8.33;;;;;;;20.60;70.74;96815.02;1708315;83;21008;-84
2021/09/14 11:58:31;;;;;;;9.45;8.55;;;;;;;20.75;72.40;96814.52;1701828;83;21062;-84
2021/09/14 12:01:07;;;;;;;9.15;8.20;;;;;;;20.85;71.52;96806.28;1679041;84;21021;-84
2021/09/14 12:03:38;;;;;;;9.15;8.33;;;;;;;20.86;70.89;96807.08;1676903;85;21087;-84
2021/09/14 12:06:06;;;;;;;9.33;8.40;;;;;;;20.93;71.69;96812.48;1668264;84;21160;-84
2021/09/14 12:08:34;;;;;;;8.40;7.60;;;;;;;20.97;71.35;96808.33;1678879;84;21077;-84
2021/09/14 12:11:02;;;;;;;8.93;8.13;;;;;;;20.95;72.10;96809.61;1677819;84;20980;-84
2021/09/14 12:13:30;;;;;;;7.65;6.95;;;;;;;21.00;71.28;96798.35;1690524;84;21439;-84
2021/09/14 12:16:02;;;;;;;8.38;7.58;;;;;;;21.11;71.77;96802.75;1635174;85;21155;-84
2021/09/14 12:18:27;;;;;;;9.15;8.25;;;;;;;21.18;71.72;96800.78;1689969;84;21115;-84
2021/09/14 12:20:53;;;;;;;8.85;7.87;;;;;;;21.22;68.51;96798.73;1687117;84;21111;-84
2021/09/14 12:23:19;;;;;;;8.20;7.40;;;;;;;21.28;67.81;96809.69;1690074;84;21228;-84